Time;durP1;ratioP1;P1;durP2;ratioP2;P2;SDS_P1;SDS_P2;PMS_P1;PMS_P2;Temp;Humidity;BMP_temperature;BMP_pressure;BME280_temperature;BME280_humidity;BME280_pressure;Samples;Min_cycle;Max_cycle;Signal;HPM_P1;HPM_P2
2022/02/28 00:01:51;;;;;;;23.75;14.77;;;;;;;2.46;71.09;100507.94;5040370;28;20048;-73
2022/02/28 00:04:18;;;;;;;21.13;13.75;;;;;;;2.53;71.01;100508.13;5040124;28;20096;-73
2022/02/28 00:06:44;;;;;;;24.45;14.73;;;;;;;2.51;70.91;100502.19;5039832;28;20112;-73
2022/02/28 00:09:09;;;;;;;23.58;13.65;;;;;;;2.50;70.75;100508.44;5043441;28;20576;-72
2022/02/28 00:11:35;;;;;;;18.42;11.93;;;;;;;2.48;70.93;100508.59;5038528;28;20096;-72
2022/02/28 00:14:00;;;;;;;19.70;12.80;;;;;;;2.50;71.25;100498.72;5040966;28;20036;-72
2022/02/28 00:16:25;;;;;;;18.48;11.80;;;;;;;2.47;70.81;100506.13;5037199;28;20049;-73
2022/02/28 00:18:50;;;;;;;24.25;14.75;;;;;;;2.48;71.19;100508.59;5041821;28;20029;-72
2022/02/28 00:21:16;;;;;;;21.75;12.57;;;;;;;2.47;70.75;100503.50;5040304;28;20029;-72
2022/02/28 00:23:41;;;;;;;20.33;12.05;;;;;;;2.46;70.88;100515.00;5040560;28;20070;-72
2022/02/28 00:26:06;;;;;;;19.42;12.27;;;;;;;2.45;70.80;100508.06;5041893;28;20108;-72
2022/02/28 00:28:32;;;;;;;24.58;12.45;;;;;;;2.41;71.29;100510.19;5039198;28;20076;-73
2022/02/28 00:30:57;;;;;;;19.10;11.68;;;;;;;2.43;70.64;100518.78;5041399;28;20421;-72
2022/02/28 00:33:23;;;;;;;22.10;12.85;;;;;;;2.42;70.79;100511.03;5038734;28;20408;-73
2022/02/28 00:35:48;;;;;;;20.58;12.95;;;;;;;2.37;70.23;100514.13;5042217;28;20469;-73
2022/02/28 00:38:13;;;;;;;20.90;13.60;;;;;;;2.40;70.94;100513.84;5044202;28;20036;-72
2022/02/28 00:40:39;;;;;;;21.48;13.32;;;;;;;2.37;70.39;100516.75;5041290;28;20457;-73
2022/02/28 00:43:04;;;;;;;19.50;11.88;;;;;;;2.37;70.56;100513.28;5040252;28;20544;-72
2022/02/28 00:45:30;;;;;;;20.95;12.63;;;;;;;2.31;70.47;100517.38;5044752;28;20056;-73
2022/02/28 00:47:55;;;;;;;18.77;12.57;;;;;;;2.33;70.65;100514.59;5037825;28;20063;-73
2022/02/28 00:50:20;;;;;;;21.00;12.18;;;;;;;2.34;70.95;100518.91;5025040;28;20721;-72
2022/02/28 00:52:46;;;;;;;21.67;12.55;;;;;;;2.33;71.08;100509.31;5041187;28;20024;-72
2022/02/28 00:55:12;;;;;;;21.50;13.30;;;;;;;2.28;70.46;100512.41;5039874;28;20112;-72
2022/02/28 00:57:38;;;;;;;18.15;12.50;;;;;;;2.28;70.84;100522.97;5041700;28;20119;-72
2022/02/28 01:00:07;;;;;;;17.95;11.90;;;;;;;2.26;71.16;100519.66;5041339;28;20581;-72
2022/02/28 01:02:33;;;;;;;19.13;12.38;;;;;;;2.24;71.02;100516.34;5044169;28;20063;-72
2022/02/28 01:04:58;;;;;;;20.00;11.82;;;;;;;2.25;70.92;100524.09;5041783;28;20041;-72
2022/02/28 01:07:24;;;;;;;19.45;11.63;;;;;;;2.22;70.78;100519.16;5039792;28;20634;-72
2022/02/28 01:09:49;;;;;;;20.88;12.00;;;;;;;2.24;71.33;100513.72;5044017;28;20051;-72
2022/02/28 01:12:15;;;;;;;20.15;12.10;;;;;;;2.15;70.93;100499.66;5041293;28;20029;-72
2022/02/28 01:14:40;;;;;;;17.38;11.05;;;;;;;2.19;70.61;100511.53;5027741;28;20073;-73
2022/02/28 01:17:06;;;;;;;17.38;11.43;;;;;;;2.20;70.49;100515.84;5040524;28;20025;-73
2022/02/28 01:19:32;;;;;;;17.73;11.98;;;;;;;2.18;70.37;100509.88;5042974;28;20507;-73
2022/02/28 01:21:57;;;;;;;18.52;11.70;;;;;;;2.17;71.00;100517.94;5041286;28;20064;-73
2022/02/28 01:24:22;;;;;;;21.02;12.85;;;;;;;2.16;70.80;100513.66;5038884;28;20021;-72
2022/02/28 01:26:48;;;;;;;20.05;11.63;;;;;;;2.14;70.74;100518.25;5044541;28;20071;-72
2022/02/28 01:29:15;;;;;;;23.17;13.68;;;;;;;2.10;70.98;100504.56;5044156;28;20060;-72
2022/02/28 01:31:40;;;;;;;18.88;11.63;;;;;;;2.10;70.61;100511.63;5044800;28;20033;-72
2022/02/28 01:34:06;;;;;;;17.00;11.20;;;;;;;2.09;70.74;100502.91;5029754;28;20037;-73
2022/02/28 01:36:31;;;;;;;20.80;11.85;;;;;;;2.08;70.75;100495.16;5043368;28;20548;-72
2022/02/28 01:38:57;;;;;;;21.80;12.15;;;;;;;2.08;70.70;100505.69;5040511;28;20400;-73
2022/02/28 01:41:22;;;;;;;18.42;11.30;;;;;;;2.07;70.23;100498.78;5047825;28;20119;-73
2022/02/28 01:43:47;;;;;;;18.23;11.80;;;;;;;2.01;70.58;100488.88;5042541;28;20021;-72
2022/02/28 01:46:12;;;;;;;25.08;12.38;;;;;;;2.05;70.56;100496.28;5016518;28;20034;-72
2022/02/28 01:48:38;;;;;;;18.42;11.55;;;;;;;2.04;70.69;100494.66;5037433;28;20033;-72
2022/02/28 01:51:03;;;;;;;23.38;13.45;;;;;;;1.93;70.38;100476.47;5040125;28;20032;-72
2022/02/28 01:53:28;;;;;;;16.75;10.80;;;;;;;1.98;70.33;100499.69;5029331;28;20040;-72
2022/02/28 01:55:54;;;;;;;22.52;12.43;;;;;;;1.98;70.41;100490.00;5038947;28;20068;-72
2022/02/28 01:58:19;;;;;;;17.02;10.68;;;;;;;1.98;70.82;100489.16;5042360;28;20432;-72
2022/02/28 02:00:45;;;;;;;22.88;11.80;;;;;;;1.98;70.80;100487.38;5041998;28;20537;-72
2022/02/28 02:03:10;;;;;;;18.42;11.27;;;;;;;1.81;70.84;100461.91;5040923;28;20048;-72
2022/02/28 02:05:35;;;;;;;19.08;11.30;;;;;;;1.96;70.72;100483.22;5038214;28;20036;-73
2022/02/28 02:08:04;;;;;;;16.88;10.98;;;;;;;1.94;70.95;100482.56;5041678;28;20071;-73
2022/02/28 02:10:30;;;;;;;27.20;11.68;;;;;;;1.92;70.38;100482.69;5040356;28;20025;-72
2022/02/28 02:12:55;;;;;;;17.63;11.05;;;;;;;1.92;70.74;100484.53;5043581;28;20037;-73
2022/02/28 02:15:24;;;;;;;21.27;12.02;;;;;;;1.92;70.89;100479.25;5044001;28;20021;-72
2022/02/28 02:17:49;;;;;;;22.77;12.27;;;;;;;1.90;70.64;100474.13;5045588;28;20033;-72
2022/02/28 02:20:20;;;;;;;21.40;12.00;;;;;;;1.88;70.96;100472.66;5047193;28;20052;-72
2022/02/28 02:23:07;;;;;;;20.80;11.80;;;;;;;1.86;70.53;100479.84;5033833;28;20469;-72
2022/02/28 02:25:33;;;;;;;;;;;;;;;1.76;70.44;100473.84;5019644;28;20028;-73
2022/02/28 02:27:59;;;;;;;;;;;;;;;1.71;70.85;100471.66;5038358;28;19921;-72
2022/02/28 02:30:24;;;;;;;18.90;11.60;;;;;;;1.71;70.88;100473.47;5038953;28;19939;-72
2022/02/28 02:32:49;;;;;;;19.15;11.07;;;;;;;1.75;70.91;100469.59;5037816;28;20413;-72
2022/02/28 02:35:15;;;;;;;18.60;11.68;;;;;;;1.63;70.89;100449.72;5040304;28;20433;-72
2022/02/28 02:37:40;;;;;;;19.80;11.45;;;;;;;1.76;70.89;100473.84;5038115;28;20025;-72
2022/02/28 02:40:07;;;;;;;21.10;11.90;;;;;;;1.70;71.17;100456.88;5036166;28;20087;-72
2022/02/28 02:42:32;;;;;;;20.85;12.13;;;;;;;1.71;71.09;100460.31;5037043;28;20488;-73
2022/02/28 02:44:58;;;;;;;21.25;11.88;;;;;;;1.76;70.50;100468.59;5036440;28;20037;-73
2022/02/28 02:47:23;;;;;;;19.48;12.65;;;;;;;1.74;71.05;100473.19;5021356;28;20591;-73
2022/02/28 02:49:48;;;;;;;17.77;12.25;;;;;;;1.72;70.63;100470.72;5034846;28;20072;-72
2022/02/28 02:52:14;;;;;;;18.98;11.55;;;;;;;1.68;71.00;100463.25;5033987;28;20060;-71
2022/02/28 02:54:39;;;;;;;21.70;12.10;;;;;;;1.69;70.62;100463.09;5041362;28;20398;-73
2022/02/28 02:57:05;;;;;;;21.02;13.23;;;;;;;1.70;70.41;100453.41;5018068;28;20127;-72
2022/02/28 02:59:30;;;;;;;17.70;12.57;;;;;;;1.70;70.82;100458.66;5037281;28;20386;-73
2022/02/28 03:01:55;;;;;;;23.45;12.57;;;;;;;1.70;70.52;100456.03;5025748;28;20128;-73
2022/02/28 03:04:21;;;;;;;18.50;12.05;;;;;;;1.68;70.72;100450.09;5038132;28;20393;-72
2022/02/28 03:06:46;;;;;;;20.33;12.85;;;;;;;1.68;70.73;100460.63;5043700;28;20032;-72
2022/02/28 03:09:13;;;;;;;19.55;12.70;;;;;;;1.68;70.41;100452.75;5039607;28;20560;-72
2022/02/28 03:11:43;;;;;;;22.88;13.50;;;;;;;1.64;70.81;100451.41;5039029;28;20379;-72
2022/02/28 03:14:09;;;;;;;15.95;11.60;;;;;;;1.65;70.22;100451.22;5037380;28;20087;-72
2022/02/28 03:16:35;;;;;;;24.48;13.13;;;;;;;1.63;70.35;100449.72;5037541;28;20029;-73
2022/02/28 03:19:01;;;;;;;17.33;11.10;;;;;;;1.62;70.99;100445.47;5041325;28;20535;-73
2022/02/28 03:21:26;;;;;;;20.10;12.35;;;;;;;1.61;70.42;100449.06;5039352;28;20031;-73
2022/02/28 03:23:51;;;;;;;21.27;12.63;;;;;;;1.59;70.46;100443.13;5039527;28;20028;-72
2022/02/28 03:26:16;;;;;;;22.00;12.70;;;;;;;1.58;71.02;100447.56;5036823;28;20040;-72
2022/02/28 03:28:42;;;;;;;22.73;12.50;;;;;;;1.56;70.42;100444.25;5041385;28;20094;-72
2022/02/28 03:31:07;;;;;;;19.52;13.20;;;;;;;1.57;70.69;100445.06;5036717;28;20033;-73
2022/02/28 03:33:33;;;;;;;19.42;11.73;;;;;;;1.57;71.03;100450.34;5040445;28;20051;-73
2022/02/28 03:35:58;;;;;;;22.52;12.20;;;;;;;1.56;70.31;100446.03;5034852;28;20120;-72
2022/02/28 03:38:23;;;;;;;21.00;12.20;;;;;;;1.54;70.52;100448.84;5043360;28;20039;-72
2022/02/28 03:40:48;;;;;;;22.17;12.48;;;;;;;1.54;70.30;100446.19;5033750;28;20071;-72
2022/02/28 03:43:14;;;;;;;22.45;12.63;;;;;;;1.45;70.43;100432.16;5035529;28;20561;-72
2022/02/28 03:45:40;;;;;;;23.75;13.50;;;;;;;1.51;70.83;100434.16;5036679;28;20032;-72
2022/02/28 03:48:06;;;;;;;20.40;12.65;;;;;;;1.44;70.48;100429.69;5038137;28;20393;-72
2022/02/28 03:50:31;;;;;;;19.92;12.27;;;;;;;1.48;70.65;100436.28;5035413;28;20497;-72
2022/02/28 03:52:56;;;;;;;21.15;11.75;;;;;;;1.48;70.50;100436.28;5033633;28;20049;-72
2022/02/28 03:55:22;;;;;;;21.30;13.80;;;;;;;1.47;69.84;100435.47;5035373;28;20033;-72
2022/02/28 03:57:47;;;;;;;18.25;12.77;;;;;;;1.45;70.65;100434.78;5018653;28;20041;-73
2022/02/28 04:00:13;;;;;;;21.77;12.80;;;;;;;1.42;70.10;100435.06;5035779;28;20049;-72
2022/02/28 04:02:39;;;;;;;21.17;12.88;;;;;;;1.34;70.37;100427.13;5037625;28;20032;-72
2022/02/28 04:05:05;;;;;;;23.40;12.35;;;;;;;1.42;70.13;100437.72;5034337;28;20032;-72
2022/02/28 04:07:31;;;;;;;28.35;13.60;;;;;;;1.29;70.06;100415.41;5037872;28;20031;-72
2022/02/28 04:09:56;;;;;;;21.92;14.25;;;;;;;1.41;70.16;100438.69;5020854;28;20056;-72
2022/02/28 04:12:21;;;;;;;25.60;14.40;;;;;;;1.40;70.40;100431.78;5039121;28;20068;-72
2022/02/28 04:14:47;;;;;;;26.15;14.43;;;;;;;1.39;70.49;100434.56;5037314;28;20033;-72
2022/02/28 04:17:12;;;;;;;21.45;13.55;;;;;;;1.38;70.52;100436.34;5040454;28;20025;-72
2022/02/28 04:19:38;;;;;;;21.88;12.70;;;;;;;1.37;70.41;100434.72;5035103;28;20049;-72
2022/02/28 04:22:04;;;;;;;22.88;14.48;;;;;;;1.34;70.41;100427.13;5035608;28;20083;-72
2022/02/28 04:24:29;;;;;;;24.27;13.57;;;;;;;1.33;70.75;100428.09;5037624;28;20045;-72
2022/02/28 04:26:55;;;;;;;20.30;13.00;;;;;;;1.34;70.19;100432.38;5040790;28;20043;-72
2022/02/28 04:29:21;;;;;;;23.85;13.25;;;;;;;1.32;70.80;100422.97;5043206;28;20040;-72
2022/02/28 04:31:46;;;;;;;22.45;13.25;;;;;;;1.33;70.76;100422.03;5048132;28;20036;-73
2022/02/28 04:34:13;;;;;;;23.33;12.98;;;;;;;1.31;70.74;100416.88;5044586;28;20086;-73
2022/02/28 04:36:39;;;;;;;24.08;13.80;;;;;;;1.31;70.39;100416.88;5042275;28;20082;-74
2022/02/28 04:39:04;;;;;;;22.88;13.48;;;;;;;1.29;70.84;100420.69;5047712;28;20121;-73
2022/02/28 04:41:29;;;;;;;24.90;14.00;;;;;;;1.28;70.29;100427.72;5039551;28;20025;-73
2022/02/28 04:43:55;;;;;;;22.77;14.13;;;;;;;1.27;70.98;100435.75;5061968;23;20071;-74
2022/02/28 04:46:20;;;;;;;25.67;12.50;;;;;;;1.21;70.59;100410.06;5043816;28;20115;-77
2022/02/28 04:48:45;;;;;;;19.75;13.32;;;;;;;1.18;71.09;100419.06;5050006;28;20071;-79
2022/02/28 04:51:11;;;;;;;26.17;15.20;;;;;;;1.21;70.66;100413.53;5021902;28;20040;-72
2022/02/28 04:53:36;;;;;;;19.60;12.23;;;;;;;1.21;70.51;100425.84;5037989;28;20047;-72
2022/02/28 04:56:02;;;;;;;24.15;14.27;;;;;;;1.23;70.30;100429.97;5060538;28;20420;-72
2022/02/28 04:58:27;;;;;;;21.92;13.25;;;;;;;1.13;70.34;100421.34;5043986;28;20025;-72
2022/02/28 05:00:52;;;;;;;25.08;14.30;;;;;;;1.20;70.59;100432.88;5061487;28;20036;-72
2022/02/28 05:03:18;;;;;;;22.77;13.15;;;;;;;1.19;70.32;100443.56;5059115;28;20182;-72
2022/02/28 05:05:44;;;;;;;21.42;13.48;;;;;;;1.18;70.11;100434.84;5053088;28;20094;-72
2022/02/28 05:08:12;;;;;;;22.85;12.60;;;;;;;1.12;70.76;100434.63;5057676;28;20447;-72
2022/02/28 05:10:38;;;;;;;21.50;14.25;;;;;;;1.16;71.12;100442.06;5055116;28;20047;-72
2022/02/28 05:13:03;;;;;;;25.20;13.18;;;;;;;1.10;70.52;100434.78;5058889;28;20037;-73
2022/02/28 05:15:29;;;;;;;23.23;13.63;;;;;;;1.09;70.89;100433.09;5052397;28;20035;-73
2022/02/28 05:17:57;;;;;;;24.60;13.60;;;;;;;1.12;70.52;100439.88;5057514;28;20025;-72
2022/02/28 05:20:22;;;;;;;24.85;12.95;;;;;;;1.12;70.57;100443.34;5057024;28;20564;-72
2022/02/28 05:22:48;;;;;;;24.45;14.13;;;;;;;1.12;70.21;100439.88;5045080;28;20124;-73
2022/02/28 05:25:14;;;;;;;24.85;14.23;;;;;;;1.10;70.61;100453.19;5031700;28;20025;-73
2022/02/28 05:27:43;;;;;;;21.45;13.02;;;;;;;1.11;70.53;100454.00;5053994;28;20025;-73
2022/02/28 05:30:10;;;;;;;22.20;13.25;;;;;;;1.10;70.40;100453.19;5055895;28;20410;-73
2022/02/28 05:32:37;;;;;;;24.50;14.07;;;;;;;1.08;70.35;100456.94;5055305;28;20075;-72
2022/02/28 05:35:03;;;;;;;22.55;13.35;;;;;;;0.97;70.07;100439.56;5051962;28;20025;-74
2022/02/28 05:37:28;;;;;;;21.33;12.98;;;;;;;1.06;70.35;100461.50;5055981;28;20033;-72
2022/02/28 05:39:54;;;;;;;21.55;13.07;;;;;;;1.02;70.81;100447.00;5033245;28;20378;-72
2022/02/28 05:42:19;;;;;;;24.70;13.63;;;;;;;1.01;70.08;100456.69;4999134;28;20037;-73
2022/02/28 05:44:44;;;;;;;20.98;13.15;;;;;;;0.99;70.66;100447.28;5052042;28;20452;-74
2022/02/28 05:47:10;;;;;;;24.50;14.23;;;;;;;1.02;70.31;100463.63;5036719;28;20033;-74
2022/02/28 05:49:35;;;;;;;25.73;14.18;;;;;;;1.01;70.31;100455.84;5040458;28;20420;-72
2022/02/28 05:52:00;;;;;;;23.00;13.88;;;;;;;1.00;70.52;100464.72;5053813;28;20505;-73
2022/02/28 05:54:26;;;;;;;22.48;13.45;;;;;;;0.98;70.26;100466.69;5036826;28;20033;-76
2022/02/28 05:56:51;;;;;;;23.02;13.63;;;;;;;0.99;70.84;100470.94;5059244;28;20047;-72
2022/02/28 05:59:17;;;;;;;30.30;14.98;;;;;;;0.97;69.91;100471.09;5063457;28;20465;-72
2022/02/28 06:01:42;;;;;;;22.20;12.82;;;;;;;0.98;70.19;100477.19;5038106;28;20036;-72
2022/02/28 06:04:07;;;;;;;26.40;14.60;;;;;;;0.94;70.92;100471.38;5060599;28;20047;-74
2022/02/28 06:06:32;;;;;;;22.80;14.73;;;;;;;0.94;70.38;100465.34;5057783;28;20416;-73
2022/02/28 06:08:58;;;;;;;30.63;14.27;;;;;;;0.93;70.67;100471.56;5057776;28;20162;-76
2022/02/28 06:11:25;;;;;;;21.90;14.10;;;;;;;0.88;70.32;100461.47;5058641;28;20029;-73
2022/02/28 06:13:51;;;;;;;27.73;15.27;;;;;;;0.93;70.20;100482.06;5064258;28;20025;-72
2022/02/28 06:16:16;;;;;;;24.08;14.57;;;;;;;0.92;70.30;100477.78;5054563;28;20033;-72
2022/02/28 06:18:41;;;;;;;28.63;15.07;;;;;;;0.93;70.74;100479.44;5038521;28;20032;-72
2022/02/28 06:21:09;;;;;;;25.50;15.15;;;;;;;0.91;70.78;100482.22;5059200;28;20040;-72
2022/02/28 06:23:35;;;;;;;29.15;16.17;;;;;;;0.90;70.88;100482.34;5061523;28;20025;-73
2022/02/28 06:26:00;;;;;;;29.77;17.30;;;;;;;0.84;70.79;100480.31;5062080;28;20042;-74
2022/02/28 06:28:28;;;;;;;28.55;15.95;;;;;;;0.79;70.58;100482.56;5059326;28;20037;-73
2022/02/28 06:30:53;;;;;;;29.83;17.55;;;;;;;0.79;70.88;100482.56;5052123;28;20111;-74
2022/02/28 06:33:19;;;;;;;30.58;17.85;;;;;;;0.76;71.29;100486.31;5055664;28;20750;-73
2022/02/28 06:35:48;;;;;;;28.08;16.40;;;;;;;0.74;71.20;100494.31;5045721;28;20036;-73
2022/02/28 06:38:14;;;;;;;28.80;17.08;;;;;;;0.67;71.48;100479.28;5031447;28;20136;-73
2022/02/28 06:40:40;;;;;;;31.20;17.95;;;;;;;0.65;71.93;100483.88;5050779;28;20032;-74
2022/02/28 06:43:05;;;;;;;32.25;17.65;;;;;;;0.65;71.79;100487.34;5048860;28;20033;-73
2022/02/28 06:45:31;;;;;;;31.10;19.10;;;;;;;0.56;72.03;100482.94;5030020;28;20554;-74
2022/02/28 06:47:56;;;;;;;29.08;17.05;;;;;;;0.62;72.07;100492.88;5047020;28;20487;-73
2022/02/28 06:50:21;;;;;;;31.13;16.95;;;;;;;0.59;72.54;100485.25;5049159;28;20036;-74
2022/02/28 06:52:47;;;;;;;31.05;16.67;;;;;;;0.60;72.34;100486.09;5031125;28;20040;-74
2022/02/28 06:55:13;;;;;;;28.63;18.23;;;;;;;0.59;72.77;100494.97;5047932;28;20028;-73
2022/02/28 06:57:38;;;;;;;30.25;17.95;;;;;;;0.65;72.39;100505.72;5049580;28;20041;-73
2022/02/28 07:00:05;;;;;;;31.08;17.98;;;;;;;0.68;72.17;100515.94;5031917;28;20118;-74
2022/02/28 07:02:30;;;;;;;29.98;16.48;;;;;;;0.71;72.04;100520.91;5029770;28;20513;-74
2022/02/28 07:04:55;;;;;;;32.78;17.02;;;;;;;0.70;72.54;100521.84;5048778;28;20120;-74
2022/02/28 07:07:21;;;;;;;28.20;16.58;;;;;;;0.65;72.24;100510.16;5026229;28;20029;-73
2022/02/28 07:09:47;;;;;;;29.20;16.70;;;;;;;0.73;72.64;100524.22;5046663;28;20111;-73
2022/02/28 07:12:13;;;;;;;27.65;17.40;;;;;;;0.73;73.20;100513.69;5045276;28;20060;-74
2022/02/28 07:14:39;;;;;;;33.80;17.73;;;;;;;0.75;72.97;100519.63;5028134;28;20063;-73
2022/02/28 07:17:04;;;;;;;29.05;16.15;;;;;;;0.80;72.89;100521.84;5046576;28;20036;-74
2022/02/28 07:19:30;;;;;;;30.40;17.05;;;;;;;0.80;73.23;100519.19;5047276;28;20033;-74
2022/02/28 07:21:56;;;;;;;31.92;17.70;;;;;;;0.83;73.02;100521.53;5049814;28;20544;-74
2022/02/28 07:24:22;;;;;;;30.30;17.95;;;;;;;0.77;72.74;100507.19;5048324;28;20561;-73
2022/02/28 07:26:48;;;;;;;27.20;16.15;;;;;;;0.86;72.85;100518.63;5047351;28;20397;-73
2022/02/28 07:29:13;;;;;;;30.38;17.40;;;;;;;0.85;73.10;100510.88;5047353;28;20024;-73
2022/02/28 07:31:39;;;;;;;32.65;19.25;;;;;;;0.89;72.58;100520.13;5030608;28;20044;-73
2022/02/28 07:34:04;;;;;;;30.10;17.38;;;;;;;0.81;72.79;100502.44;5047801;28;20473;-73
2022/02/28 07:36:29;;;;;;;35.17;18.98;;;;;;;0.94;73.41;100517.91;5047070;28;20481;-72
2022/02/28 07:38:55;;;;;;;37.65;19.75;;;;;;;0.96;73.01;100522.00;5030661;28;20035;-73
2022/02/28 07:41:20;;;;;;;28.27;17.25;;;;;;;0.95;73.10;100523.00;5049681;28;20029;-73
2022/02/28 07:43:46;;;;;;;26.25;16.45;;;;;;;1.00;72.98;100528.66;5047907;28;20036;-72
2022/02/28 07:46:11;;;;;;;30.92;18.40;;;;;;;0.99;72.87;100516.47;5043214;28;20037;-73
2022/02/28 07:48:36;;;;;;;28.25;17.98;;;;;;;1.06;73.16;100532.50;5047966;28;20468;-73
2022/02/28 07:51:02;;;;;;;30.05;18.27;;;;;;;1.07;73.50;100534.16;5049059;28;20039;-73
2022/02/28 07:53:27;;;;;;;32.60;18.20;;;;;;;1.08;73.15;100535.81;5048752;28;20385;-73
2022/02/28 07:55:52;;;;;;;31.92;18.33;;;;;;;1.07;73.46;100534.16;5043310;28;20467;-72
2022/02/28 07:58:18;;;;;;;31.95;18.42;;;;;;;1.09;73.75;100540.91;5031545;28;20033;-73
2022/02/28 08:00:43;;;;;;;31.83;17.90;;;;;;;1.14;73.70;100537.84;5045713;28;20108;-72
2022/02/28 08:03:08;;;;;;;31.15;18.45;;;;;;;1.13;73.53;100539.66;5048442;28;20612;-73
2022/02/28 08:05:34;;;;;;;35.75;19.25;;;;;;;1.17;73.09;100548.91;5036453;28;20028;-72
2022/02/28 08:08:00;;;;;;;34.47;19.10;;;;;;;1.20;73.26;100545.97;5053733;28;20545;-74
2022/02/28 08:10:26;;;;;;;29.88;18.58;;;;;;;1.19;73.56;100541.69;5054833;28;20037;-74
2022/02/28 08:12:52;;;;;;;30.58;18.70;;;;;;;1.23;73.09;100550.09;5057475;28;20024;-72
2022/02/28 08:15:17;;;;;;;35.78;20.10;;;;;;;1.28;73.77;100558.38;5058923;28;20044;-73
2022/02/28 08:17:43;;;;;;;36.03;20.38;;;;;;;1.31;73.23;100563.38;5057229;28;20029;-73
2022/02/28 08:20:09;;;;;;;35.42;21.70;;;;;;;1.32;73.31;100554.50;5059147;28;20040;-73
2022/02/28 08:22:35;;;;;;;33.78;20.67;;;;;;;1.34;73.16;100557.78;5058667;28;20033;-73
2022/02/28 08:25:00;;;;;;;36.17;21.05;;;;;;;1.37;73.61;100553.09;5029689;28;20037;-72
2022/02/28 08:27:26;;;;;;;31.25;20.10;;;;;;;1.40;73.50;100559.81;5056118;28;20032;-73
2022/02/28 08:29:52;;;;;;;31.67;19.23;;;;;;;1.43;73.45;100557.75;5053326;28;20029;-73
2022/02/28 08:32:17;;;;;;;33.92;20.02;;;;;;;1.42;73.44;100548.19;5052720;28;20094;-73
2022/02/28 08:34:43;;;;;;;41.28;20.30;;;;;;;1.45;73.06;100555.78;5037069;28;20029;-73
2022/02/28 08:37:08;;;;;;;37.63;21.17;;;;;;;1.49;73.53;100545.78;5055029;28;20484;-73
2022/02/28 08:39:34;;;;;;;33.47;20.08;;;;;;;1.52;73.69;100553.41;5049818;28;20068;-71
2022/02/28 08:41:59;;;;;;;34.15;20.42;;;;;;;1.55;73.57;100547.00;5050526;28;20045;-73
2022/02/28 08:44:25;;;;;;;36.25;20.08;;;;;;;1.58;73.90;100550.16;5052256;28;20056;-72
2022/02/28 08:46:50;;;;;;;39.22;20.83;;;;;;;1.57;73.80;100539.81;5037644;28;20071;-73
2022/02/28 08:49:18;;;;;;;32.58;19.25;;;;;;;1.61;73.79;100546.41;5051738;28;20033;-73
2022/02/28 08:51:45;;;;;;;31.17;19.02;;;;;;;1.67;73.84;100551.06;5053910;28;20029;-72
2022/02/28 08:54:10;;;;;;;37.55;19.67;;;;;;;1.66;73.54;100544.97;5057985;28;20039;-73
2022/02/28 08:56:36;;;;;;;32.10;19.25;;;;;;;1.70;74.04;100542.88;5049705;28;20029;-71
2022/02/28 08:59:02;;;;;;;35.35;20.35;;;;;;;1.73;73.77;100550.47;5052990;28;20045;-72
2022/02/28 09:01:27;;;;;;;31.73;18.70;;;;;;;1.79;73.72;100552.53;5055666;28;20023;-73
2022/02/28 09:03:53;;;;;;;32.30;19.77;;;;;;;1.77;73.55;100542.13;5049692;28;20021;-74
2022/02/28 09:06:18;;;;;;;35.15;20.88;;;;;;;1.85;74.26;100546.66;5051646;28;20055;-73
2022/02/28 09:08:46;;;;;;;35.47;19.90;;;;;;;1.82;74.21;100531.13;5049329;28;20048;-73
2022/02/28 09:11:11;;;;;;;30.67;18.58;;;;;;;1.90;74.06;100547.84;5028604;28;20033;-73
2022/02/28 09:13:37;;;;;;;33.08;19.88;;;;;;;1.90;74.29;100539.13;5049961;28;20761;-73
2022/02/28 09:16:03;;;;;;;29.80;19.13;;;;;;;1.94;74.10;100541.31;5050210;28;20068;-72
2022/02/28 09:18:28;;;;;;;35.85;19.83;;;;;;;1.95;73.70;100532.41;5051688;28;20037;-73
2022/02/28 09:20:54;;;;;;;34.75;20.58;;;;;;;1.99;73.81;100533.75;5034957;28;20481;-74
2022/02/28 09:23:19;;;;;;;40.85;21.13;;;;;;;2.01;73.79;100526.53;5051865;28;20029;-73
2022/02/28 09:25:45;;;;;;;30.45;18.55;;;;;;;2.05;73.63;100524.44;5049631;28;20036;-73
2022/02/28 09:28:10;;;;;;;38.90;20.20;;;;;;;2.07;73.82;100518.06;5045996;28;20508;-72
2022/02/28 09:30:36;;;;;;;34.30;20.35;;;;;;;2.08;73.89;100506.53;5027135;28;20095;-72
2022/02/28 09:33:01;;;;;;;36.55;19.40;;;;;;;2.11;73.54;100508.84;5043290;28;20040;-73
2022/02/28 09:35:27;;;;;;;32.92;18.95;;;;;;;2.14;73.70;100505.91;5042813;28;20495;-72
2022/02/28 09:37:53;;;;;;;35.35;19.83;;;;;;;2.19;73.42;100508.06;5047104;28;20064;-72
2022/02/28 09:40:25;;;;;;;34.55;19.27;;;;;;;2.23;73.24;100512.03;5048962;28;20032;-72
2022/02/28 09:42:54;;;;;;;39.08;20.00;;;;;;;2.25;73.52;100510.91;5047138;28;20047;-74
2022/02/28 09:45:20;;;;;;;33.70;19.52;;;;;;;2.27;73.28;100514.22;5049822;28;20358;-73
2022/02/28 09:47:45;;;;;;;33.22;18.27;;;;;;;2.29;73.25;100520.16;5050217;28;20036;-74
2022/02/28 09:50:11;;;;;;;31.92;18.95;;;;;;;2.21;73.51;100495.56;5051527;28;20194;-72
2022/02/28 09:52:36;;;;;;;35.38;20.63;;;;;;;2.31;73.43;100511.28;5048171;28;20633;-73
2022/02/28 09:55:02;;;;;;;34.50;20.67;;;;;;;2.35;73.19;100521.38;5029133;28;20040;-73
2022/02/28 09:57:28;;;;;;;33.85;19.30;;;;;;;2.41;73.61;100518.09;5051415;28;20477;-72
2022/02/28 09:59:53;;;;;;;38.45;23.23;;;;;;;2.46;73.67;100522.91;5050209;28;20393;-73
2022/02/28 10:02:19;;;;;;;36.53;21.48;;;;;;;2.47;73.56;100520.09;5050758;28;20021;-73
2022/02/28 10:04:45;;;;;;;36.00;20.88;;;;;;;2.54;73.55;100522.94;5049910;28;20458;-72
2022/02/28 10:07:20;;;;;;;34.53;21.33;;;;;;;2.55;73.16;100519.34;5050753;28;20032;-72
2022/02/28 10:09:45;;;;;;;33.75;21.02;;;;;;;2.61;73.11;100530.09;5046670;28;20021;-72
2022/02/28 10:12:11;;;;;;;35.92;21.33;;;;;;;2.66;73.29;100529.63;5033678;28;21173;-73
2022/02/28 10:14:36;;;;;;;36.47;21.70;;;;;;;2.70;73.29;100521.25;5032504;28;20037;-71
2022/02/28 10:17:05;;;;;;;38.25;20.85;;;;;;;2.70;73.64;100523.88;5049903;28;20106;-73
2022/02/28 10:19:32;;;;;;;34.60;20.73;;;;;;;2.75;73.69;100528.69;5049517;28;20033;-73
2022/02/28 10:22:05;;;;;;;38.33;21.20;;;;;;;2.78;73.63;100526.56;5044857;28;20543;-72
2022/02/28 10:24:39;;;;;;;32.67;20.25;;;;;;;2.83;73.94;100532.19;5046247;28;20029;-73
2022/02/28 10:27:06;;;;;;;34.42;20.45;;;;;;;2.86;73.99;100523.94;5026805;28;20418;-74
2022/02/28 10:29:38;;;;;;;31.20;19.20;;;;;;;2.90;73.74;100530.59;5044825;28;20423;-73
2022/02/28 10:32:05;;;;;;;34.05;21.23;;;;;;;2.93;73.81;100530.25;5044606;28;20033;-72
2022/02/28 10:35:59;;;;;;;33.20;20.00;;;;;;;2.99;74.08;100529.59;5038396;28;20107;-73
2022/02/28 10:37:20;;;;;;;35.10;21.00;;;;;;;3.01;74.23;100527.63;5044994;28;20064;-73
2022/02/28 10:39:58;;;;;;;37.67;21.73;;;;;;;3.04;74.42;100526.50;5042203;28;20626;-72
2022/02/28 10:42:24;;;;;;;31.65;19.38;;;;;;;3.08;74.05;100529.66;5031186;28;20489;-72
2022/02/28 10:47:17;;;;;;;36.42;21.52;;;;;;;3.17;74.79;100533.97;5045191;28;20422;-69
2022/02/28 10:49:42;;;;;;;37.20;21.13;;;;;;;3.22;74.16;100537.78;5044830;28;21365;-69
2022/02/28 10:52:13;;;;;;;40.17;22.27;;;;;;;3.26;74.10;100533.00;5040579;28;20090;-69
2022/02/28 10:54:43;;;;;;;36.97;21.92;;;;;;;3.30;73.81;100539.63;5036401;28;20465;-69
2022/02/28 10:57:16;;;;;;;36.60;22.88;;;;;;;3.32;74.67;100527.09;5037173;28;20131;-69
2022/02/28 10:59:42;;;;;;;34.65;22.77;;;;;;;3.35;74.50;100530.22;5047047;28;20115;-69
2022/02/28 11:02:10;;;;;;;37.15;23.15;;;;;;;3.38;74.93;100531.72;5030612;28;20047;-70
2022/02/28 11:04:39;;;;;;;36.47;22.65;;;;;;;3.42;75.12;100527.78;5046677;28;20103;-69
2022/02/28 11:07:11;;;;;;;36.45;22.80;;;;;;;3.46;75.67;100515.91;5048390;28;20060;-69
2022/02/28 11:09:47;;;;;;;36.40;21.15;;;;;;;3.49;75.27;100521.72;5043196;28;20530;-69
2022/02/28 11:12:27;;;;;;;39.38;23.17;;;;;;;3.53;74.83;100519.56;5045644;28;20049;-69
2022/02/28 11:14:55;;;;;;;37.60;22.05;;;;;;;3.56;74.78;100516.59;5047959;28;20032;-69